Aberdeen, Idaho
Current Conditions -  °F | °C
As of 3:53 AM on Sunday 23 Nov 2014 (Local Time) from KPIH Reporting Station
Overcast Overcast  
Wind Chill: 20°   Ceiling: 1700
Heat Index: 32°   Visibility: 10mi
Dew Point: 29°   Wind: 18mph
Humidity: 88%   Direction: 250°WSW
Pressure: 30.01"   Gusts: NA
Location:  42.94°N, 112.84°W
Report Text: KPIH 231053Z AUTO 25016KT 10SM BKN017 BKN055 OVC080 00/M02 A3001 RMK AO2 PK WND 26029/1014 SLP173 T00001017
Loading
Personal Weather Stations






























Interactive Weather Map New forecast layout! Learn more

10-Day Weather Forecast

Advertisements
Track Severe Weather on mobile